Strona główna
METAR-TAF:

METAR-TAF

Lotnisko :

Campbeltown, Szkocja

Szerokość geograficzna: 55-26-14N, Długość geograficzna: 005-41-11W, wysokość: 13 m

Aktualna obserwacja pogody

Raport powstał 4 godziny i 58 minut temu, godzina 15:50 UTC
Wiatr 14 kt od północny zachód
Temperatura 11°C
Wilgotność 82%
Ciśnienie 998 hPa
Widzialność 10 km lub więcej
Rozproszone chmury na wysokości 4500 ft

METAR: EGEC 301550Z 32014KT 9999 SCT045 11/08 Q0998

czas: 21:48 (20:48 UTC)

Prognoza

Raport powstał 6 godziny i 45 minut temu, godzina 14:03 UTC
Prognoza ważna od 30 godzina 15 UTC do 30 godzina 17 UTC
Wiatr 12 kt od północny zachód
Widzialność 10 km lub więcej
Mało chmury na wysokości 2000 ft
Prawdopodobieństwo 40% :
Przejściowo
od 30 godzina 15 UTC do 30 godzina 17 UTC
Widzialność: 7000 m
deszcz, przelotny opad deszczu

TAF: EGEC 301403Z 3015/3017 31012KT 9999 FEW020 PROB40 TEMPO 3015/3017 7000 RA SHRA

Obserwacja i prognoza pogody dla ponad 4000 lotnisk (raport METAR i TAF).

Dostępne stacje oznaczono żółtymi i czerwonymi punktami na mapie.

Najedź kursorem aby zobaczyć nazwę stacji.

Kliknij aby zobaczyć obserwacje i prognozy pogody.

Aby zmienić mapę: kliknij na zielony przycisk z czarnym krzyżykiem, aby powiększyć; na zielony przycisk z myślnikiem, aby pomniejszyć; na zielone strzałki, aby przejść do map sąsiednich.


METAR-TAF: